Glacier Park International Airport
KGPI : now visible

Airfield :











YOU CAN JOIN US ON...

 
LOGIN :

Register | Disclaimer

   EN    FR    IT 

 









Legend :    VFR   Marginal VFR   IFR   Intensive IFR   Very Intensive IFR
Visi :
Ceiling :
>= 8 km
>= 3000ft
5 to 8 km
1000 to 3000 ft
1500m to 5 km
500 to 1000 ft
800 to 1500m
200 to 500 ft
< 800m
< 200 ft
Symbols :   Thunderstorms  Fog  Heavy snow  Heavy precipitations  Wind > 20 kt






- Airport Elevation : 2977 ft
- IATA code : FCA


KGPI - Glacier Park International

CURRENT METAR :
  • 291755Z 00000KT 10SM CLR 22/08 A3004 RMK AO2 SLP166 T02170078 10222 20083 58010

EXPIRED METARs :
  • 291655Z 06003KT 10SM CLR 21/08 A3007 RMK AO2 SLP173 T02060083
  • 291555Z 36005KT 10SM CLR 18/08 A3008 RMK AO2 SLP178 T01780078
  • 291455Z 34004KT 10SM FEW100 17/08 A3007 RMK AO2 SLP172 T01720078 53004

TAF KGPI
Valid from the 29 at 18:00 until the 30 at 18:00 UTC


291720Z 2918/3018 10006KT P6SM SKC
FM300100 11005KT P6SM SCT100
KZLC FIR / North America



MET'MAP, your aeronautical weather chart ! - Copyright ORBIFLY December 2007 - Disclaimer

ORBIFLY MET'MAP TEAM :

Programming & Development : Alexandra Zaïnal
Concept & original design : Baudouin d'Aumeries
Assistance for programming : Marc-Olivier Méhu
Technical & hardware support : Manuel Goepfert

Contact : metmap@orbifly.com




SOURCES & CREDITS :

   NOAA       Earth
Advisory